sensor_id;sensor_type;location;lat;lon;timestamp;temperature;humidity
51837;DHT22;38941;53.254;6.600;2022-09-30T00:00:51;10.70;99.90
51837;DHT22;38941;53.254;6.600;2022-09-30T00:02:52;10.60;99.90
51837;DHT22;38941;53.254;6.600;2022-09-30T00:04:52;10.60;99.90
51837;DHT22;38941;53.254;6.600;2022-09-30T00:06:53;10.60;99.90
51837;DHT22;38941;53.254;6.600;2022-09-30T00:08:55;10.60;99.90
51837;DHT22;38941;53.254;6.600;2022-09-30T00:11:02;10.50;99.90
51837;DHT22;38941;53.254;6.600;2022-09-30T00:13:03;10.50;99.90
51837;DHT22;38941;53.254;6.600;2022-09-30T00:15:04;10.50;99.90
51837;DHT22;38941;53.254;6.600;2022-09-30T00:17:06;10.40;99.90
51837;DHT22;38941;53.254;6.600;2022-09-30T00:19:07;10.40;99.90
51837;DHT22;38941;53.254;6.600;2022-09-30T00:21:10;10.40;99.90
51837;DHT22;38941;53.254;6.600;2022-09-30T00:23:11;10.30;99.90
51837;DHT22;38941;53.254;6.600;2022-09-30T00:25:12;10.30;99.90
51837;DHT22;38941;53.254;6.600;2022-09-30T00:27:12;10.30;99.90
51837;DHT22;38941;53.254;6.600;2022-09-30T00:29:17;10.20;99.90
51837;DHT22;38941;53.254;6.600;2022-09-30T00:31:19;10.10;99.90
51837;DHT22;38941;53.254;6.600;2022-09-30T00:33:20;10.10;99.90
51837;DHT22;38941;53.254;6.600;2022-09-30T00:35:21;10.10;99.90
51837;DHT22;38941;53.254;6.600;2022-09-30T00:37:21;10.10;99.90
51837;DHT22;38941;53.254;6.600;2022-09-30T00:39:25;10.10;99.90
51837;DHT22;38941;53.254;6.600;2022-09-30T00:41:27;10.00;99.90
51837;DHT22;38941;53.254;6.600;2022-09-30T00:43:47;10.00;99.90
51837;DHT22;38941;53.254;6.600;2022-09-30T00:45:58;10.00;99.90
51837;DHT22;38941;53.254;6.600;2022-09-30T00:48:07;10.00;99.90
51837;DHT22;38941;53.254;6.600;2022-09-30T00:52:24;10.00;99.90
51837;DHT22;38941;53.254;6.600;2022-09-30T00:54:30;10.00;99.90
51837;DHT22;38941;53.254;6.600;2022-09-30T00:56:36;10.00;99.90
51837;DHT22;38941;53.254;6.600;2022-09-30T00:59:10;10.00;99.90
51837;DHT22;38941;53.254;6.600;2022-09-30T01:01:13;10.00;99.90
51837;DHT22;38941;53.254;6.600;2022-09-30T01:03:16;10.00;99.90
51837;DHT22;38941;53.254;6.600;2022-09-30T01:05:17;10.00;99.90
51837;DHT22;38941;53.254;6.600;2022-09-30T01:07:18;10.00;99.90
51837;DHT22;38941;53.254;6.600;2022-09-30T01:09:20;10.00;99.90
51837;DHT22;38941;53.254;6.600;2022-09-30T01:11:21;10.00;99.90
51837;DHT22;38941;53.254;6.600;2022-09-30T01:13:24;10.00;99.90
51837;DHT22;38941;53.254;6.600;2022-09-30T01:20:37;9.90;99.90
51837;DHT22;38941;53.254;6.600;2022-09-30T01:30:04;9.90;99.90
51837;DHT22;38941;53.254;6.600;2022-09-30T01:32:25;9.80;99.90
51837;DHT22;38941;53.254;6.600;2022-09-30T01:43:51;9.90;99.90
51837;DHT22;38941;53.254;6.600;2022-09-30T01:46:09;9.80;99.90
51837;DHT22;38941;53.254;6.600;2022-09-30T01:50:31;9.70;99.90
51837;DHT22;38941;53.254;6.600;2022-09-30T01:52:49;9.70;99.90
51837;DHT22;38941;53.254;6.600;2022-09-30T01:57:21;9.60;99.90
51837;DHT22;38941;53.254;6.600;2022-09-30T01:59:31;9.60;99.90
51837;DHT22;38941;53.254;6.600;2022-09-30T02:01:48;9.50;99.90
51837;DHT22;38941;53.254;6.600;2022-09-30T02:03:58;9.50;99.90
51837;DHT22;38941;53.254;6.600;2022-09-30T02:06:10;9.40;99.90
51837;DHT22;38941;53.254;6.600;2022-09-30T02:08:23;9.30;99.90
51837;DHT22;38941;53.254;6.600;2022-09-30T02:10:32;9.30;99.90
51837;DHT22;38941;53.254;6.600;2022-09-30T02:12:37;9.30;99.90
51837;DHT22;38941;53.254;6.600;2022-09-30T02:14:45;9.20;99.90
51837;DHT22;38941;53.254;6.600;2022-09-30T02:17:22;9.20;99.90
51837;DHT22;38941;53.254;6.600;2022-09-30T02:19:22;9.20;99.90
51837;DHT22;38941;53.254;6.600;2022-09-30T02:21:32;9.10;99.90
51837;DHT22;38941;53.254;6.600;2022-09-30T02:23:39;9.10;99.90
51837;DHT22;38941;53.254;6.600;2022-09-30T02:25:46;9.10;99.90
51837;DHT22;38941;53.254;6.600;2022-09-30T02:27:59;9.10;99.90
51837;DHT22;38941;53.254;6.600;2022-09-30T02:30:01;9.10;99.90
51837;DHT22;38941;53.254;6.600;2022-09-30T02:32:09;9.10;99.90
51837;DHT22;38941;53.254;6.600;2022-09-30T02:34:21;9.00;99.90
51837;DHT22;38941;53.254;6.600;2022-09-30T02:36:29;9.00;99.90
51837;DHT22;38941;53.254;6.600;2022-09-30T02:38:39;9.00;99.90
51837;DHT22;38941;53.254;6.600;2022-09-30T02:40:51;9.00;99.90
51837;DHT22;38941;53.254;6.600;2022-09-30T02:42:53;9.00;99.90
51837;DHT22;38941;53.254;6.600;2022-09-30T02:45:00;9.00;99.90
51837;DHT22;38941;53.254;6.600;2022-09-30T02:50:05;8.90;99.90
51837;DHT22;38941;53.254;6.600;2022-09-30T02:51:49;8.90;99.90
51837;DHT22;38941;53.254;6.600;2022-09-30T02:54:16;8.90;99.90
51837;DHT22;38941;53.254;6.600;2022-09-30T02:56:59;8.90;99.90
51837;DHT22;38941;53.254;6.600;2022-09-30T02:59:04;8.90;99.90
51837;DHT22;38941;53.254;6.600;2022-09-30T03:01:06;8.90;99.90
51837;DHT22;38941;53.254;6.600;2022-09-30T03:03:20;8.90;99.90
51837;DHT22;38941;53.254;6.600;2022-09-30T03:05:22;8.90;99.90
51837;DHT22;38941;53.254;6.600;2022-09-30T03:07:23;8.90;99.90
51837;DHT22;38941;53.254;6.600;2022-09-30T03:09:27;8.90;99.90
51837;DHT22;38941;53.254;6.600;2022-09-30T03:11:29;8.80;99.90
51837;DHT22;38941;53.254;6.600;2022-09-30T03:18:30;8.80;99.90
51837;DHT22;38941;53.254;6.600;2022-09-30T03:30:15;8.70;99.90
51837;DHT22;38941;53.254;6.600;2022-09-30T03:35:02;8.60;99.90
51837;DHT22;38941;53.254;6.600;2022-09-30T03:37:15;8.60;99.90
51837;DHT22;38941;53.254;6.600;2022-09-30T03:39:27;8.60;99.90
51837;DHT22;38941;53.254;6.600;2022-09-30T03:41:53;8.50;99.90
51837;DHT22;38941;53.254;6.600;2022-09-30T03:44:18;8.50;99.90
51837;DHT22;38941;53.254;6.600;2022-09-30T03:46:32;8.50;99.90
51837;DHT22;38941;53.254;6.600;2022-09-30T03:48:35;8.40;99.90
51837;DHT22;38941;53.254;6.600;2022-09-30T03:50:38;8.40;99.90
51837;DHT22;38941;53.254;6.600;2022-09-30T03:52:40;8.40;99.90
51837;DHT22;38941;53.254;6.600;2022-09-30T03:54:57;8.40;99.90
51837;DHT22;38941;53.254;6.600;2022-09-30T03:56:58;8.40;99.90
51837;DHT22;38941;53.254;6.600;2022-09-30T03:59:03;8.30;99.90
51837;DHT22;38941;53.254;6.600;2022-09-30T04:01:04;8.30;99.90
51837;DHT22;38941;53.254;6.600;2022-09-30T04:03:04;8.30;99.90
51837;DHT22;38941;53.254;6.600;2022-09-30T04:05:06;8.20;99.90
51837;DHT22;38941;53.254;6.600;2022-09-30T04:07:07;8.20;99.90
51837;DHT22;38941;53.254;6.600;2022-09-30T04:09:09;8.20;99.90
51837;DHT22;38941;53.254;6.600;2022-09-30T04:11:11;8.20;99.90
51837;DHT22;38941;53.254;6.600;2022-09-30T04:13:12;8.20;99.90
51837;DHT22;38941;53.254;6.600;2022-09-30T04:15:12;8.20;99.90
51837;DHT22;38941;53.254;6.600;2022-09-30T04:17:13;8.30;99.90
51837;DHT22;38941;53.254;6.600;2022-09-30T04:19:14;8.20;99.90
51837;DHT22;38941;53.254;6.600;2022-09-30T04:21:15;8.10;99.90
51837;DHT22;38941;53.254;6.600;2022-09-30T04:23:16;8.10;99.90
51837;DHT22;38941;53.254;6.600;2022-09-30T04:25:17;8.10;99.90
51837;DHT22;38941;53.254;6.600;2022-09-30T04:27:17;8.10;99.90
51837;DHT22;38941;53.254;6.600;2022-09-30T04:29:18;8.10;99.90
51837;DHT22;38941;53.254;6.600;2022-09-30T04:31:19;8.00;99.90
51837;DHT22;38941;53.254;6.600;2022-09-30T04:33:20;8.00;99.90
51837;DHT22;38941;53.254;6.600;2022-09-30T04:35:21;8.00;99.90
51837;DHT22;38941;53.254;6.600;2022-09-30T04:37:22;8.00;99.90
51837;DHT22;38941;53.254;6.600;2022-09-30T04:39:23;8.00;99.90
51837;DHT22;38941;53.254;6.600;2022-09-30T04:41:24;8.00;99.90
51837;DHT22;38941;53.254;6.600;2022-09-30T04:43:26;7.90;99.90
51837;DHT22;38941;53.254;6.600;2022-09-30T04:45:27;7.90;99.90
51837;DHT22;38941;53.254;6.600;2022-09-30T04:47:30;7.90;99.90
51837;DHT22;38941;53.254;6.600;2022-09-30T04:49:31;7.80;99.90
51837;DHT22;38941;53.254;6.600;2022-09-30T04:51:32;7.80;99.90
51837;DHT22;38941;53.254;6.600;2022-09-30T04:53:33;7.80;99.90
51837;DHT22;38941;53.254;6.600;2022-09-30T04:55:34;7.80;99.90
51837;DHT22;38941;53.254;6.600;2022-09-30T04:57:35;8.00;99.90
51837;DHT22;38941;53.254;6.600;2022-09-30T04:59:35;7.80;99.90
51837;DHT22;38941;53.254;6.600;2022-09-30T05:01:36;7.80;99.90
51837;DHT22;38941;53.254;6.600;2022-09-30T05:03:39;7.80;99.90
51837;DHT22;38941;53.254;6.600;2022-09-30T05:05:43;7.80;99.90
51837;DHT22;38941;53.254;6.600;2022-09-30T05:07:43;7.80;99.90
51837;DHT22;38941;53.254;6.600;2022-09-30T05:09:44;7.80;99.90
51837;DHT22;38941;53.254;6.600;2022-09-30T05:11:45;7.80;99.90
51837;DHT22;38941;53.254;6.600;2022-09-30T05:13:47;7.70;99.90
51837;DHT22;38941;53.254;6.600;2022-09-30T05:15:48;7.80;99.90
51837;DHT22;38941;53.254;6.600;2022-09-30T05:17:50;7.70;99.90
51837;DHT22;38941;53.254;6.600;2022-09-30T05:19:51;7.70;99.90
51837;DHT22;38941;53.254;6.600;2022-09-30T05:21:52;7.70;99.90
51837;DHT22;38941;53.254;6.600;2022-09-30T05:23:52;7.70;99.90
51837;DHT22;38941;53.254;6.600;2022-09-30T05:25:53;7.70;99.90
51837;DHT22;38941;53.254;6.600;2022-09-30T05:27:55;7.70;99.90
51837;DHT22;38941;53.254;6.600;2022-09-30T05:29:56;7.80;99.90
51837;DHT22;38941;53.254;6.600;2022-09-30T05:31:57;7.70;99.90
51837;DHT22;38941;53.254;6.600;2022-09-30T05:33:58;7.70;99.90
51837;DHT22;38941;53.254;6.600;2022-09-30T05:36:04;7.70;99.90
51837;DHT22;38941;53.254;6.600;2022-09-30T05:38:06;7.60;99.90
51837;DHT22;38941;53.254;6.600;2022-09-30T05:40:08;7.70;99.90
51837;DHT22;38941;53.254;6.600;2022-09-30T05:42:08;7.60;99.90
51837;DHT22;38941;53.254;6.600;2022-09-30T05:44:09;7.80;99.90
51837;DHT22;38941;53.254;6.600;2022-09-30T05:46:10;7.60;99.90
51837;DHT22;38941;53.254;6.600;2022-09-30T05:48:12;7.60;99.90
51837;DHT22;38941;53.254;6.600;2022-09-30T05:50:12;7.50;99.90
51837;DHT22;38941;53.254;6.600;2022-09-30T05:52:13;7.60;99.90
51837;DHT22;38941;53.254;6.600;2022-09-30T05:54:14;7.60;99.90
51837;DHT22;38941;53.254;6.600;2022-09-30T05:56:15;7.50;99.90
51837;DHT22;38941;53.254;6.600;2022-09-30T05:58:16;7.60;99.90
51837;DHT22;38941;53.254;6.600;2022-09-30T06:00:18;7.50;99.90
51837;DHT22;38941;53.254;6.600;2022-09-30T06:02:19;7.50;99.90
51837;DHT22;38941;53.254;6.600;2022-09-30T06:04:20;7.50;99.90
51837;DHT22;38941;53.254;6.600;2022-09-30T06:06:23;7.50;99.90
51837;DHT22;38941;53.254;6.600;2022-09-30T06:08:24;7.50;99.90
51837;DHT22;38941;53.254;6.600;2022-09-30T06:10:26;7.60;99.90
51837;DHT22;38941;53.254;6.600;2022-09-30T06:12:27;7.50;99.90
51837;DHT22;38941;53.254;6.600;2022-09-30T06:14:28;7.60;99.90
51837;DHT22;38941;53.254;6.600;2022-09-30T06:16:29;7.60;99.90
51837;DHT22;38941;53.254;6.600;2022-09-30T06:18:31;7.50;99.90
51837;DHT22;38941;53.254;6.600;2022-09-30T06:20:32;7.50;99.90
51837;DHT22;38941;53.254;6.600;2022-09-30T06:22:33;7.50;99.90
51837;DHT22;38941;53.254;6.600;2022-09-30T06:24:35;7.60;99.90
51837;DHT22;38941;53.254;6.600;2022-09-30T06:26:36;7.60;99.90
51837;DHT22;38941;53.254;6.600;2022-09-30T06:28:37;7.70;99.90
51837;DHT22;38941;53.254;6.600;2022-09-30T06:30:38;7.80;99.90
51837;DHT22;38941;53.254;6.600;2022-09-30T06:32:38;7.80;99.90
51837;DHT22;38941;53.254;6.600;2022-09-30T06:34:39;7.90;99.90
51837;DHT22;38941;53.254;6.600;2022-09-30T06:36:40;7.90;99.90
51837;DHT22;38941;53.254;6.600;2022-09-30T06:38:40;8.30;99.90
51837;DHT22;38941;53.254;6.600;2022-09-30T06:40:42;7.60;99.90
51837;DHT22;38941;53.254;6.600;2022-09-30T06:42:43;8.10;99.90
51837;DHT22;38941;53.254;6.600;2022-09-30T06:44:44;8.20;99.90
51837;DHT22;38941;53.254;6.600;2022-09-30T06:46:45;8.20;99.90
51837;DHT22;38941;53.254;6.600;2022-09-30T06:48:46;8.30;99.90
51837;DHT22;38941;53.254;6.600;2022-09-30T06:50:47;8.30;99.90
51837;DHT22;38941;53.254;6.600;2022-09-30T06:52:47;8.40;99.90
51837;DHT22;38941;53.254;6.600;2022-09-30T06:54:48;8.50;99.90
51837;DHT22;38941;53.254;6.600;2022-09-30T06:56:50;8.60;99.90
51837;DHT22;38941;53.254;6.600;2022-09-30T06:58:53;8.60;99.90
51837;DHT22;38941;53.254;6.600;2022-09-30T07:00:58;8.70;99.90
51837;DHT22;38941;53.254;6.600;2022-09-30T07:03:00;8.70;99.90
51837;DHT22;38941;53.254;6.600;2022-09-30T07:05:01;8.70;99.90
51837;DHT22;38941;53.254;6.600;2022-09-30T07:07:03;8.80;99.90
51837;DHT22;38941;53.254;6.600;2022-09-30T07:09:05;8.80;99.90
51837;DHT22;38941;53.254;6.600;2022-09-30T07:11:10;8.90;99.90
51837;DHT22;38941;53.254;6.600;2022-09-30T07:13:16;8.90;99.90
51837;DHT22;38941;53.254;6.600;2022-09-30T07:15:18;9.00;99.90
51837;DHT22;38941;53.254;6.600;2022-09-30T07:17:22;9.10;99.90
51837;DHT22;38941;53.254;6.600;2022-09-30T07:19:23;9.10;99.90
51837;DHT22;38941;53.254;6.600;2022-09-30T07:21:24;9.10;99.90
51837;DHT22;38941;53.254;6.600;2022-09-30T07:23:25;9.20;99.90
51837;DHT22;38941;53.254;6.600;2022-09-30T07:25:25;9.30;99.90
51837;DHT22;38941;53.254;6.600;2022-09-30T07:27:28;9.40;99.90
51837;DHT22;38941;53.254;6.600;2022-09-30T07:29:29;9.50;99.90
51837;DHT22;38941;53.254;6.600;2022-09-30T07:31:30;9.60;99.90
51837;DHT22;38941;53.254;6.600;2022-09-30T07:33:31;9.70;99.90
51837;DHT22;38941;53.254;6.600;2022-09-30T07:35:33;9.70;99.90
51837;DHT22;38941;53.254;6.600;2022-09-30T07:37:33;9.80;99.90
51837;DHT22;38941;53.254;6.600;2022-09-30T07:39:35;9.90;99.90
51837;DHT22;38941;53.254;6.600;2022-09-30T07:41:38;9.30;99.90
51837;DHT22;38941;53.254;6.600;2022-09-30T07:43:42;11.20;99.90
51837;DHT22;38941;53.254;6.600;2022-09-30T07:45:44;12.10;99.90
51837;DHT22;38941;53.254;6.600;2022-09-30T07:47:45;13.00;99.90
51837;DHT22;38941;53.254;6.600;2022-09-30T07:49:46;13.70;99.90
51837;DHT22;38941;53.254;6.600;2022-09-30T07:51:47;14.30;99.90
51837;DHT22;38941;53.254;6.600;2022-09-30T07:53:50;14.80;99.90
51837;DHT22;38941;53.254;6.600;2022-09-30T07:55:51;15.30;99.90
51837;DHT22;38941;53.254;6.600;2022-09-30T07:57:51;15.70;99.90
51837;DHT22;38941;53.254;6.600;2022-09-30T07:59:52;16.10;99.50
51837;DHT22;38941;53.254;6.600;2022-09-30T08:01:53;16.30;99.10
51837;DHT22;38941;53.254;6.600;2022-09-30T08:03:56;16.60;98.70
51837;DHT22;38941;53.254;6.600;2022-09-30T08:06:03;16.90;98.50
51837;DHT22;38941;53.254;6.600;2022-09-30T08:08:04;17.20;98.10
51837;DHT22;38941;53.254;6.600;2022-09-30T08:10:06;17.60;97.80
51837;DHT22;38941;53.254;6.600;2022-09-30T08:12:08;17.60;96.40
51837;DHT22;38941;53.254;6.600;2022-09-30T08:14:17;17.90;96.90
51837;DHT22;38941;53.254;6.600;2022-09-30T08:16:19;17.70;96.20
51837;DHT22;38941;53.254;6.600;2022-09-30T08:18:21;18.30;96.30
51837;DHT22;38941;53.254;6.600;2022-09-30T08:20:22;18.60;95.90
51837;DHT22;38941;53.254;6.600;2022-09-30T08:22:23;18.80;95.50
51837;DHT22;38941;53.254;6.600;2022-09-30T08:24:24;18.80;95.30
51837;DHT22;38941;53.254;6.600;2022-09-30T08:26:25;19.20;95.00
51837;DHT22;38941;53.254;6.600;2022-09-30T08:28:26;19.60;94.90
51837;DHT22;38941;53.254;6.600;2022-09-30T08:30:33;19.60;94.00
51837;DHT22;38941;53.254;6.600;2022-09-30T08:32:34;19.50;93.50
51837;DHT22;38941;53.254;6.600;2022-09-30T08:34:36;19.70;93.20
51837;DHT22;38941;53.254;6.600;2022-09-30T08:36:36;19.90;92.90
51837;DHT22;38941;53.254;6.600;2022-09-30T08:38:38;20.10;92.70
51837;DHT22;38941;53.254;6.600;2022-09-30T08:40:52;20.40;92.40
51837;DHT22;38941;53.254;6.600;2022-09-30T08:45:34;20.80;90.60
51837;DHT22;38941;53.254;6.600;2022-09-30T08:47:45;20.80;90.40
51837;DHT22;38941;53.254;6.600;2022-09-30T08:52:33;20.90;89.90
51837;DHT22;38941;53.254;6.600;2022-09-30T08:54:34;21.50;89.40
51837;DHT22;38941;53.254;6.600;2022-09-30T08:56:35;21.70;87.90
51837;DHT22;38941;53.254;6.600;2022-09-30T08:58:43;21.90;86.90
51837;DHT22;38941;53.254;6.600;2022-09-30T09:00:44;21.90;85.00
51837;DHT22;38941;53.254;6.600;2022-09-30T09:02:57;21.80;87.00
51837;DHT22;38941;53.254;6.600;2022-09-30T09:05:03;22.00;83.50
51837;DHT22;38941;53.254;6.600;2022-09-30T09:07:09;22.10;83.50
51837;DHT22;38941;53.254;6.600;2022-09-30T09:14:00;22.10;78.90
51837;DHT22;38941;53.254;6.600;2022-09-30T09:20:47;22.50;76.80
51837;DHT22;38941;53.254;6.600;2022-09-30T09:22:50;22.70;79.90
51837;DHT22;38941;53.254;6.600;2022-09-30T09:24:51;22.60;79.40
51837;DHT22;38941;53.254;6.600;2022-09-30T09:26:56;22.40;79.30
51837;DHT22;38941;53.254;6.600;2022-09-30T09:31:24;23.00;77.10
51837;DHT22;38941;53.254;6.600;2022-09-30T09:33:37;23.10;78.20
51837;DHT22;38941;53.254;6.600;2022-09-30T09:47:30;22.40;79.90
51837;DHT22;38941;53.254;6.600;2022-09-30T09:49:36;22.10;81.00
51837;DHT22;38941;53.254;6.600;2022-09-30T09:51:40;21.90;81.00
51837;DHT22;38941;53.254;6.600;2022-09-30T09:53:52;21.40;80.50
51837;DHT22;38941;53.254;6.600;2022-09-30T09:55:55;21.20;82.30
51837;DHT22;38941;53.254;6.600;2022-09-30T09:58:05;20.80;83.30
51837;DHT22;38941;53.254;6.600;2022-09-30T10:02:29;20.50;83.60
51837;DHT22;38941;53.254;6.600;2022-09-30T10:04:31;20.30;83.90
51837;DHT22;38941;53.254;6.600;2022-09-30T10:06:49;20.20;85.10
51837;DHT22;38941;53.254;6.600;2022-09-30T10:08:55;20.00;84.10
51837;DHT22;38941;53.254;6.600;2022-09-30T10:11:05;20.00;84.80
51837;DHT22;38941;53.254;6.600;2022-09-30T10:13:24;19.90;83.20
51837;DHT22;38941;53.254;6.600;2022-09-30T10:15:26;19.80;83.80
51837;DHT22;38941;53.254;6.600;2022-09-30T10:17:33;19.80;84.80
51837;DHT22;38941;53.254;6.600;2022-09-30T10:19:34;19.70;83.00
51837;DHT22;38941;53.254;6.600;2022-09-30T10:21:36;19.70;84.60
51837;DHT22;38941;53.254;6.600;2022-09-30T10:23:39;19.80;84.50
51837;DHT22;38941;53.254;6.600;2022-09-30T10:25:54;19.90;83.50
51837;DHT22;38941;53.254;6.600;2022-09-30T10:28:01;20.10;84.40
51837;DHT22;38941;53.254;6.600;2022-09-30T10:30:03;20.40;84.10
51837;DHT22;38941;53.254;6.600;2022-09-30T10:32:08;20.80;83.40
51837;DHT22;38941;53.254;6.600;2022-09-30T10:34:28;21.00;82.20
51837;DHT22;38941;53.254;6.600;2022-09-30T10:36:37;21.10;80.50
51837;DHT22;38941;53.254;6.600;2022-09-30T10:39:02;21.20;79.50
51837;DHT22;38941;53.254;6.600;2022-09-30T10:41:05;20.80;76.90
51837;DHT22;38941;53.254;6.600;2022-09-30T10:43:20;20.90;81.20
51837;DHT22;38941;53.254;6.600;2022-09-30T10:45:24;20.90;80.50
51837;DHT22;38941;53.254;6.600;2022-09-30T10:47:27;20.90;80.90
51837;DHT22;38941;53.254;6.600;2022-09-30T10:49:39;20.60;80.30
51837;DHT22;38941;53.254;6.600;2022-09-30T10:51:44;20.40;80.00
51837;DHT22;38941;53.254;6.600;2022-09-30T10:53:45;20.30;80.50
51837;DHT22;38941;53.254;6.600;2022-09-30T10:55:46;20.40;81.60
51837;DHT22;38941;53.254;6.600;2022-09-30T10:57:48;20.10;80.60
51837;DHT22;38941;53.254;6.600;2022-09-30T11:04:30;20.70;78.90
51837;DHT22;38941;53.254;6.600;2022-09-30T11:06:38;20.60;79.00
51837;DHT22;38941;53.254;6.600;2022-09-30T11:08:46;20.70;78.50
51837;DHT22;38941;53.254;6.600;2022-09-30T11:11:32;21.00;78.50
51837;DHT22;38941;53.254;6.600;2022-09-30T11:13:54;21.10;76.10
51837;DHT22;38941;53.254;6.600;2022-09-30T11:18:17;21.00;75.00
51837;DHT22;38941;53.254;6.600;2022-09-30T11:20:25;20.80;74.70
51837;DHT22;38941;53.254;6.600;2022-09-30T11:22:36;20.80;75.60
51837;DHT22;38941;53.254;6.600;2022-09-30T11:24:41;20.70;75.40
51837;DHT22;38941;53.254;6.600;2022-09-30T11:31:34;20.60;71.80
51837;DHT22;38941;53.254;6.600;2022-09-30T11:38:18;20.80;72.70
51837;DHT22;38941;53.254;6.600;2022-09-30T11:40:36;21.00;72.00
51837;DHT22;38941;53.254;6.600;2022-09-30T11:47:33;20.80;68.80
51837;DHT22;38941;53.254;6.600;2022-09-30T11:59:42;20.70;69.30
51837;DHT22;38941;53.254;6.600;2022-09-30T12:01:47;20.90;67.80
51837;DHT22;38941;53.254;6.600;2022-09-30T12:04:09;21.30;68.50
51837;DHT22;38941;53.254;6.600;2022-09-30T12:08:36;21.30;65.80
51837;DHT22;38941;53.254;6.600;2022-09-30T12:14:06;21.50;63.70
51837;DHT22;38941;53.254;6.600;2022-09-30T12:15:48;21.50;65.00
51837;DHT22;38941;53.254;6.600;2022-09-30T12:17:53;21.70;66.80
51837;DHT22;38941;53.254;6.600;2022-09-30T12:19:57;21.70;65.80
51837;DHT22;38941;53.254;6.600;2022-09-30T12:24:10;21.30;65.90
51837;DHT22;38941;53.254;6.600;2022-09-30T12:26:15;21.30;65.10
51837;DHT22;38941;53.254;6.600;2022-09-30T12:30:41;21.50;64.30
51837;DHT22;38941;53.254;6.600;2022-09-30T12:35:49;21.10;63.60
51837;DHT22;38941;53.254;6.600;2022-09-30T12:39:59;21.10;65.60
51837;DHT22;38941;53.254;6.600;2022-09-30T12:48:57;21.60;63.10
51837;DHT22;38941;53.254;6.600;2022-09-30T12:50:59;21.70;63.60
51837;DHT22;38941;53.254;6.600;2022-09-30T12:53:17;21.60;64.60
51837;DHT22;38941;53.254;6.600;2022-09-30T12:55:30;21.40;63.60
51837;DHT22;38941;53.254;6.600;2022-09-30T12:57:37;21.40;63.60
51837;DHT22;38941;53.254;6.600;2022-09-30T12:59:54;21.40;65.40
51837;DHT22;38941;53.254;6.600;2022-09-30T13:01:57;21.50;64.30
51837;DHT22;38941;53.254;6.600;2022-09-30T13:06:02;21.40;64.60
51837;DHT22;38941;53.254;6.600;2022-09-30T13:08:14;21.30;65.10
51837;DHT22;38941;53.254;6.600;2022-09-30T13:10:28;21.40;65.60
51837;DHT22;38941;53.254;6.600;2022-09-30T13:12:41;21.40;64.60
51837;DHT22;38941;53.254;6.600;2022-09-30T13:14:42;21.10;63.50
51837;DHT22;38941;53.254;6.600;2022-09-30T13:19:19;21.50;64.00
51837;DHT22;38941;53.254;6.600;2022-09-30T13:21:21;21.80;62.00
51837;DHT22;38941;53.254;6.600;2022-09-30T13:23:57;22.00;62.50
51837;DHT22;38941;53.254;6.600;2022-09-30T13:25:59;22.10;60.70
51837;DHT22;38941;53.254;6.600;2022-09-30T13:32:37;22.30;60.50
51837;DHT22;38941;53.254;6.600;2022-09-30T13:34:52;22.60;61.10
51837;DHT22;38941;53.254;6.600;2022-09-30T13:37:00;22.80;60.50
51837;DHT22;38941;53.254;6.600;2022-09-30T13:41:23;23.10;56.30
51837;DHT22;38941;53.254;6.600;2022-09-30T13:45:31;22.60;59.30
51837;DHT22;38941;53.254;6.600;2022-09-30T13:48:06;22.60;59.30
51837;DHT22;38941;53.254;6.600;2022-09-30T13:50:24;22.00;58.00
51837;DHT22;38941;53.254;6.600;2022-09-30T13:52:30;21.50;59.80
51837;DHT22;38941;53.254;6.600;2022-09-30T13:54:35;21.60;60.10
51837;DHT22;38941;53.254;6.600;2022-09-30T13:56:40;21.80;59.60
51837;DHT22;38941;53.254;6.600;2022-09-30T14:06:12;21.80;58.70
51837;DHT22;38941;53.254;6.600;2022-09-30T14:19:41;21.10;61.60
51837;DHT22;38941;53.254;6.600;2022-09-30T14:21:52;21.20;60.90
51837;DHT22;38941;53.254;6.600;2022-09-30T14:24:08;21.60;60.50
51837;DHT22;38941;53.254;6.600;2022-09-30T14:26:33;22.30;59.00
51837;DHT22;38941;53.254;6.600;2022-09-30T14:28:38;22.80;55.80
51837;DHT22;38941;53.254;6.600;2022-09-30T14:30:42;23.00;56.20
51837;DHT22;38941;53.254;6.600;2022-09-30T14:33:14;23.00;56.10
51837;DHT22;38941;53.254;6.600;2022-09-30T14:35:38;23.00;55.20
51837;DHT22;38941;53.254;6.600;2022-09-30T14:37:44;22.60;55.90
51837;DHT22;38941;53.254;6.600;2022-09-30T14:39:46;22.30;57.10
51837;DHT22;38941;53.254;6.600;2022-09-30T14:41:51;21.70;58.00
51837;DHT22;38941;53.254;6.600;2022-09-30T14:43:57;21.10;59.70
51837;DHT22;38941;53.254;6.600;2022-09-30T14:46:02;20.60;61.00
51837;DHT22;38941;53.254;6.600;2022-09-30T14:48:09;20.40;61.50
51837;DHT22;38941;53.254;6.600;2022-09-30T14:50:18;20.30;61.60
51837;DHT22;38941;53.254;6.600;2022-09-30T14:52:37;20.10;61.90
51837;DHT22;38941;53.254;6.600;2022-09-30T14:54:46;19.80;62.50
51837;DHT22;38941;53.254;6.600;2022-09-30T14:56:48;19.60;63.30
51837;DHT22;38941;53.254;6.600;2022-09-30T14:58:50;19.50;63.70
51837;DHT22;38941;53.254;6.600;2022-09-30T15:01:13;19.40;63.90
51837;DHT22;38941;53.254;6.600;2022-09-30T15:03:16;19.70;64.10
51837;DHT22;38941;53.254;6.600;2022-09-30T15:05:17;20.00;63.00
51837;DHT22;38941;53.254;6.600;2022-09-30T15:07:18;20.40;62.30
51837;DHT22;38941;53.254;6.600;2022-09-30T15:11:42;21.20;60.50
51837;DHT22;38941;53.254;6.600;2022-09-30T15:13:43;21.60;60.00
51837;DHT22;38941;53.254;6.600;2022-09-30T15:15:47;21.50;59.00
51837;DHT22;38941;53.254;6.600;2022-09-30T15:17:47;21.30;59.70
51837;DHT22;38941;53.254;6.600;2022-09-30T15:19:51;20.80;60.80
51837;DHT22;38941;53.254;6.600;2022-09-30T15:21:55;20.30;61.60
51837;DHT22;38941;53.254;6.600;2022-09-30T15:23:57;20.40;61.90
51837;DHT22;38941;53.254;6.600;2022-09-30T15:26:00;20.40;61.40
51837;DHT22;38941;53.254;6.600;2022-09-30T15:28:01;20.50;61.40
51837;DHT22;38941;53.254;6.600;2022-09-30T15:30:20;20.10;60.90
51837;DHT22;38941;53.254;6.600;2022-09-30T15:32:22;20.10;61.20
51837;DHT22;38941;53.254;6.600;2022-09-30T15:34:24;19.70;62.30
51837;DHT22;38941;53.254;6.600;2022-09-30T15:36:28;18.80;63.20
51837;DHT22;38941;53.254;6.600;2022-09-30T15:38:31;19.00;64.10
51837;DHT22;38941;53.254;6.600;2022-09-30T15:40:32;18.90;65.30
51837;DHT22;38941;53.254;6.600;2022-09-30T15:42:53;18.60;65.10
51837;DHT22;38941;53.254;6.600;2022-09-30T15:44:55;18.40;65.50
51837;DHT22;38941;53.254;6.600;2022-09-30T15:47:06;18.40;65.70
51837;DHT22;38941;53.254;6.600;2022-09-30T15:49:43;18.40;65.80
51837;DHT22;38941;53.254;6.600;2022-09-30T15:51:44;18.70;65.90
51837;DHT22;38941;53.254;6.600;2022-09-30T15:53:46;18.80;65.10
51837;DHT22;38941;53.254;6.600;2022-09-30T15:55:49;19.20;64.50
51837;DHT22;38941;53.254;6.600;2022-09-30T15:57:50;19.50;63.70
51837;DHT22;38941;53.254;6.600;2022-09-30T16:00:01;19.50;63.60
51837;DHT22;38941;53.254;6.600;2022-09-30T16:02:04;19.30;64.40
51837;DHT22;38941;53.254;6.600;2022-09-30T16:06:21;18.60;65.90
51837;DHT22;38941;53.254;6.600;2022-09-30T16:08:26;18.30;66.70